Time;durP1;ratioP1;P1;durP2;ratioP2;P2;SDS_P1;SDS_P2;PMS_P1;PMS_P2;Temp;Humidity;BMP_temperature;BMP_pressure;BME280_temperature;BME280_humidity;BME280_pressure;Samples;Min_cycle;Max_cycle;Signal;HPM_P1;HPM_P2
2022/10/29 00:00:53;;;;;;;16.03;3.20;;;14.00;84.40;;;;;;5040228;28;20433;-68
2022/10/29 00:03:21;;;;;;;15.53;4.90;;;14.00;84.80;;;;;;5032325;28;20438;-67
2022/10/29 00:05:59;;;;;;;8.80;4.27;;;14.00;85.00;;;;;;5041189;28;20940;-68
2022/10/29 00:08:27;;;;;;;6.63;3.37;;;13.90;85.00;;;;;;5052260;28;20440;-67
2022/10/29 00:10:55;;;;;;;14.50;4.17;;;14.00;85.10;;;;;;5049875;28;20443;-67
2022/10/29 00:13:24;;;;;;;9.33;4.17;;;14.00;85.20;;;;;;5048510;28;20426;-67
2022/10/29 00:15:51;;;;;;;10.23;4.37;;;14.00;84.90;;;;;;5032115;28;20576;-67
2022/10/29 00:18:18;;;;;;;9.67;6.00;;;14.00;85.00;;;;;;5034248;28;20445;-67
2022/10/29 00:20:47;;;;;;;7.73;3.37;;;14.00;83.60;;;;;;5049943;28;20830;-67
2022/10/29 00:23:14;;;;;;;17.27;12.00;;;14.00;84.50;;;;;;5050734;28;20444;-67
2022/10/29 00:25:44;;;;;;;15.37;7.30;;;14.00;83.80;;;;;;5032459;28;20442;-67
2022/10/29 00:28:11;;;;;;;26.53;15.57;;;14.00;83.60;;;;;;5031960;28;20438;-69
2022/10/29 00:30:40;;;;;;;16.77;9.30;;;13.90;83.20;;;;;;5049435;28;20498;-67
2022/10/29 00:33:09;;;;;;;12.90;6.77;;;13.90;83.50;;;;;;5032054;28;20493;-67
2022/10/29 00:35:36;;;;;;;12.30;6.30;;;13.90;83.60;;;;;;5051090;28;20479;-67
2022/10/29 00:38:03;;;;;;;10.77;4.00;;;13.80;83.60;;;;;;5052109;28;20459;-67
2022/10/29 00:40:30;;;;;;;9.70;4.10;;;13.80;83.90;;;;;;5033506;28;20952;-68
2022/10/29 00:43:12;;;;;;;14.17;5.87;;;13.70;83.70;;;;;;5033001;28;20446;-68
2022/10/29 00:45:46;;;;;;;15.65;6.72;;;13.70;83.80;;;;;;5031881;28;20445;-67
2022/10/29 00:48:13;;;;;;;8.33;4.97;;;13.70;84.10;;;;;;5049748;28;20222;-67
2022/10/29 00:50:40;;;;;;;10.80;5.53;;;13.60;84.10;;;;;;5052515;28;20920;-67
2022/10/29 00:53:08;;;;;;;12.60;5.67;;;13.60;83.70;;;;;;5036355;28;20496;-67
2022/10/29 00:55:35;;;;;;;9.17;4.07;;;13.50;84.10;;;;;;5051077;28;20967;-67
2022/10/29 00:58:02;;;;;;;7.43;4.17;;;13.40;84.80;;;;;;5055226;28;20950;-68
2022/10/29 01:00:29;;;;;;;17.27;5.97;;;13.30;85.70;;;;;;5040537;28;20534;-67
2022/10/29 01:02:58;;;;;;;7.93;4.53;;;13.30;86.00;;;;;;5035243;28;20441;-69
2022/10/29 01:05:26;;;;;;;11.13;6.03;;;13.30;86.10;;;;;;5049066;28;20944;-67
2022/10/29 01:07:53;;;;;;;9.27;4.40;;;13.30;86.20;;;;;;5055007;28;20441;-69
2022/10/29 01:10:31;;;;;;;14.30;6.53;;;13.30;86.30;;;;;;5041741;28;20453;-67
2022/10/29 01:13:10;;;;;;;14.63;5.50;;;13.30;86.00;;;;;;5035368;28;20441;-68
2022/10/29 01:15:48;;;;;;;12.50;5.90;;;13.30;86.10;;;;;;5049375;28;20472;-67
2022/10/29 01:18:23;;;;;;;10.75;5.18;;;13.20;85.90;;;;;;5054929;28;20452;-68
2022/10/29 01:21:32;;;;;;;8.23;3.90;;;13.20;85.60;;;;;;5038458;28;20269;-68
2022/10/29 01:24:37;;;;;;;9.30;3.80;;;13.10;85.80;;;;;;5034917;28;20478;-67
2022/10/29 01:27:34;;;;;;;13.05;3.70;;;13.00;85.50;;;;;;5015159;28;20438;-68
2022/10/29 01:30:10;;;;;;;8.23;3.38;;;12.90;87.00;;;;;;5030673;28;20186;-67
2022/10/29 01:32:53;;;;;;;29.55;18.08;;;12.90;86.40;;;;;;5054679;28;20687;-67
2022/10/29 01:35:30;;;;;;;32.47;17.53;;;12.90;86.10;;;;;;5052506;28;20301;-67
2022/10/29 01:38:11;;;;;;;10.95;5.47;;;12.90;86.40;;;;;;5054417;28;20436;-72
2022/10/29 01:40:44;;;;;;;9.48;3.83;;;12.90;86.60;;;;;;5042786;28;20225;-67
2022/10/29 01:43:18;;;;;;;5.90;2.87;;;12.90;86.70;;;;;;5035627;28;20755;-67
2022/10/29 01:45:50;;;;;;;7.13;2.83;;;12.80;87.00;;;;;;5045278;28;20443;-67
2022/10/29 01:48:24;;;;;;;8.02;2.42;;;12.80;87.80;;;;;;5047912;28;20442;-69
2022/10/29 01:50:57;;;;;;;7.00;2.63;;;12.80;87.80;;;;;;5034510;28;20283;-67
2022/10/29 01:53:26;;;;;;;12.63;4.45;;;12.90;88.20;;;;;;5040089;28;20232;-68
2022/10/29 01:55:53;;;;;;;11.20;2.85;;;12.90;87.80;;;;;;5044403;28;20217;-68
2022/10/29 01:58:21;;;;;;;6.50;3.33;;;12.90;87.80;;;;;;5038940;28;20186;-67
2022/10/29 02:00:56;;;;;;;8.90;4.97;;;12.90;87.30;;;;;;5054052;28;20256;-68
2022/10/29 02:03:37;;;;;;;10.97;2.73;;;13.00;86.80;;;;;;5048962;28;20194;-68
2022/10/29 02:06:12;;;;;;;10.30;3.10;;;12.90;86.90;;;;;;5033566;28;20495;-69
2022/10/29 02:08:48;;;;;;;6.82;2.33;;;12.90;87.00;;;;;;5033737;28;20630;-67
2022/10/29 02:11:21;;;;;;;10.05;3.50;;;12.90;87.30;;;;;;5014461;28;20195;-67
2022/10/29 02:13:51;;;;;;;5.63;2.55;;;12.90;87.30;;;;;;5015099;28;20192;-67
2022/10/29 02:16:19;;;;;;;8.03;3.40;;;12.90;87.30;;;;;;5046864;28;20272;-67
2022/10/29 02:18:49;;;;;;;6.07;2.70;;;12.90;87.10;;;;;;5033943;28;20520;-71
2022/10/29 02:21:17;;;;;;;10.63;2.40;;;13.00;86.80;;;;;;5013767;28;20224;-67
2022/10/29 02:23:44;;;;;;;5.20;1.98;;;13.00;85.80;;;;;;5013972;28;20191;-67
2022/10/29 02:26:12;;;;;;;6.53;4.50;;;13.00;84.50;;;;;;5049320;28;20191;-68
2022/10/29 02:28:39;;;;;;;13.95;2.70;;;12.80;84.80;;;;;;5053485;28;20433;-67
2022/10/29 02:31:06;;;;;;;9.27;2.65;;;12.60;84.40;;;;;;5035921;28;20223;-67
2022/10/29 02:33:34;;;;;;;6.22;3.17;;;12.60;84.70;;;;;;5033736;28;20191;-68
2022/10/29 02:36:02;;;;;;;6.93;2.58;;;12.50;84.90;;;;;;5048780;28;20703;-67
2022/10/29 02:38:30;;;;;;;12.57;3.45;;;12.50;85.30;;;;;;5050308;28;20550;-67
2022/10/29 02:40:57;;;;;;;6.40;2.92;;;12.50;86.00;;;;;;5053467;28;20668;-67
2022/10/29 02:43:24;;;;;;;9.55;4.28;;;12.40;86.00;;;;;;5052575;28;20580;-67
2022/10/29 02:46:10;;;;;;;6.35;2.53;;;12.30;85.70;;;;;;5053199;28;20206;-68
2022/10/29 02:48:37;;;;;;;10.98;3.95;;;12.30;86.20;;;;;;5037109;28;20646;-68
2022/10/29 02:51:06;;;;;;;6.95;3.63;;;12.30;87.00;;;;;;5033060;28;20190;-67
2022/10/29 02:53:33;;;;;;;9.15;2.78;;;12.30;87.40;;;;;;5045567;28;20282;-67
2022/10/29 02:56:01;;;;;;;6.72;2.92;;;12.40;88.10;;;;;;5053094;28;20248;-67
2022/10/29 02:58:28;;;;;;;10.40;2.78;;;12.40;88.60;;;;;;5039237;28;20600;-68
2022/10/29 03:00:55;;;;;;;12.82;3.53;;;12.40;89.20;;;;;;5033272;28;20578;-67
2022/10/29 03:03:23;;;;;;;11.23;6.20;;;12.40;89.70;;;;;;5044313;28;20194;-67
2022/10/29 03:05:50;;;;;;;13.10;6.43;;;12.40;89.50;;;;;;5053191;28;20277;-67
2022/10/29 03:08:20;;;;;;;15.93;8.80;;;12.40;89.60;;;;;;5041504;28;20586;-67
2022/10/29 03:10:47;;;;;;;16.67;7.80;;;12.40;89.20;;;;;;5032800;28;20207;-67
2022/10/29 03:13:14;;;;;;;17.92;8.02;;;12.30;88.90;;;;;;5035758;28;20232;-67
2022/10/29 03:15:44;;;;;;;10.77;7.32;;;12.30;88.60;;;;;;5037823;28;20202;-67
2022/10/29 03:18:12;;;;;;;9.82;5.45;;;12.30;88.10;;;;;;5040354;28;20214;-67
2022/10/29 03:20:39;;;;;;;11.75;4.97;;;12.30;87.80;;;;;;5052465;28;20226;-68
2022/10/29 03:23:06;;;;;;;14.70;5.72;;;12.20;87.80;;;;;;5045397;28;20266;-67
2022/10/29 03:25:35;;;;;;;9.23;5.32;;;12.10;89.00;;;;;;5032318;28;20634;-67
2022/10/29 03:28:02;;;;;;;10.32;6.47;;;12.20;89.10;;;;;;5033126;28;20187;-69
2022/10/29 03:30:30;;;;;;;15.95;6.28;;;12.20;89.50;;;;;;5032857;28;20206;-67
2022/10/29 03:32:57;;;;;;;11.80;7.90;;;12.20;89.40;;;;;;5040835;28;20198;-69
2022/10/29 03:35:24;;;;;;;17.92;9.65;;;12.30;89.50;;;;;;5052463;28;20217;-67
2022/10/29 03:37:51;;;;;;;9.40;5.03;;;12.30;89.70;;;;;;5045253;28;20218;-67
2022/10/29 03:40:19;;;;;;;7.85;3.88;;;12.30;89.30;;;;;;5032552;28;20202;-67
2022/10/29 03:42:48;;;;;;;8.32;3.50;;;12.20;88.70;;;;;;5036975;28;20174;-67
2022/10/29 03:45:15;;;;;;;8.43;3.13;;;12.10;88.80;;;;;;5052507;28;20202;-67
2022/10/29 03:47:42;;;;;;;8.20;3.20;;;12.10;88.70;;;;;;5046676;28;20183;-67
2022/10/29 03:50:10;;;;;;;9.82;3.88;;;12.10;89.00;;;;;;5032665;28;20195;-67
2022/10/29 03:52:38;;;;;;;5.78;2.60;;;12.10;89.00;;;;;;5035562;28;20214;-67
2022/10/29 03:55:06;;;;;;;7.15;3.63;;;12.00;88.80;;;;;;5052304;28;20195;-67
2022/10/29 03:57:33;;;;;;;9.60;3.45;;;11.80;88.80;;;;;;5048302;28;20651;-67
2022/10/29 04:00:04;;;;;;;7.78;3.95;;;11.70;89.10;;;;;;5032362;28;20634;-67
2022/10/29 04:02:31;;;;;;;8.45;3.55;;;11.60;90.20;;;;;;5033990;28;20278;-67
2022/10/29 04:04:58;;;;;;;8.57;5.32;;;11.60;90.90;;;;;;5052544;28;20281;-67
2022/10/29 04:07:25;;;;;;;7.90;4.05;;;11.60;91.30;;;;;;5050579;28;20201;-68
2022/10/29 04:09:53;;;;;;;10.30;4.20;;;11.70;91.60;;;;;;5032553;28;20191;-67
2022/10/29 04:12:20;;;;;;;9.25;4.72;;;11.70;91.60;;;;;;5032148;28;20205;-73
2022/10/29 04:14:47;;;;;;;19.23;8.30;;;11.80;91.70;;;;;;5051760;28;20304;-67
2022/10/29 04:17:16;;;;;;;13.50;7.03;;;11.90;91.80;;;;;;5052060;28;20308;-67
2022/10/29 04:19:43;;;;;;;10.70;6.10;;;12.00;91.50;;;;;;5032511;28;20266;-67
2022/10/29 04:22:11;;;;;;;20.15;9.48;;;12.00;91.30;;;;;;5032235;28;20650;-67
2022/10/29 04:24:38;;;;;;;22.35;8.90;;;12.00;91.30;;;;;;5050377;28;20194;-67
2022/10/29 04:27:06;;;;;;;19.00;8.70;;;11.90;91.40;;;;;;5055980;28;20669;-67
2022/10/29 04:29:35;;;;;;;14.98;7.15;;;11.90;91.50;;;;;;5038334;28;20191;-66
2022/10/29 04:32:02;;;;;;;16.35;6.80;;;11.90;91.70;;;;;;5035816;28;20194;-67
2022/10/29 04:34:31;;;;;;;11.95;6.80;;;12.00;91.50;;;;;;5051180;28;20194;-67
2022/10/29 04:37:01;;;;;;;16.13;6.00;;;12.00;91.50;;;;;;5055678;28;20222;-67
2022/10/29 04:39:29;;;;;;;11.18;6.47;;;12.00;91.50;;;;;;5040159;28;20198;-67
2022/10/29 04:41:56;;;;;;;16.17;5.72;;;12.00;91.50;;;;;;5035958;28;20602;-67
2022/10/29 04:44:23;;;;;;;10.80;5.10;;;12.00;91.60;;;;;;5035017;28;20573;-67
2022/10/29 04:46:50;;;;;;;10.27;5.43;;;12.00;91.60;;;;;;5035743;28;20265;-67
2022/10/29 04:49:17;;;;;;;19.27;5.80;;;12.00;91.60;;;;;;5047063;28;20186;-67
2022/10/29 04:51:46;;;;;;;12.10;6.03;;;12.00;91.50;;;;;;5055583;28;20186;-67
2022/10/29 04:54:16;;;;;;;9.98;4.80;;;12.00;91.50;;;;;;5043657;28;20226;-67
2022/10/29 04:56:43;;;;;;;10.60;5.40;;;11.90;91.60;;;;;;5037419;28;20222;-67
2022/10/29 04:59:11;;;;;;;12.30;6.25;;;12.00;91.80;;;;;;5047390;28;20222;-67
2022/10/29 05:01:38;;;;;;;12.27;6.55;;;12.00;91.50;;;;;;5036332;28;20187;-67
2022/10/29 05:04:05;;;;;;;18.23;9.60;;;12.00;91.40;;;;;;5055266;28;20273;-67
2022/10/29 05:06:32;;;;;;;41.60;16.40;;;12.00;91.70;;;;;;5054833;28;20606;-67
2022/10/29 05:09:01;;;;;;;21.13;11.98;;;11.90;91.80;;;;;;5038447;28;20194;-67
2022/10/29 05:11:28;;;;;;;16.35;7.40;;;11.80;92.00;;;;;;5055158;28;20194;-69
2022/10/29 05:13:56;;;;;;;18.63;7.13;;;11.80;92.00;;;;;;5035955;28;20187;-67
2022/10/29 05:16:23;;;;;;;8.65;4.22;;;11.80;92.00;;;;;;5034870;28;20282;-67
2022/10/29 05:18:50;;;;;;;6.95;4.28;;;11.80;91.90;;;;;;5049345;28;20194;-67
2022/10/29 05:21:17;;;;;;;11.13;4.60;;;11.70;92.10;;;;;;5034658;28;20233;-67
2022/10/29 05:23:44;;;;;;;11.02;4.75;;;11.60;92.30;;;;;;5050386;28;20190;-68
2022/10/29 05:26:13;;;;;;;10.98;7.03;;;11.70;92.40;;;;;;5055015;28;20281;-67
2022/10/29 05:28:40;;;;;;;9.82;6.75;;;11.70;92.40;;;;;;5039788;28;20618;-67
2022/10/29 05:31:07;;;;;;;12.48;6.20;;;11.90;92.50;;;;;;5035344;28;20673;-67
2022/10/29 05:33:34;;;;;;;14.02;6.05;;;11.90;92.60;;;;;;5026408;28;20198;-72
2022/10/29 05:36:02;;;;;;;10.38;3.60;;;12.00;92.50;;;;;;5034226;28;20233;-67
2022/10/29 05:38:29;;;;;;;8.55;4.80;;;12.00;92.10;;;;;;5052916;28;20206;-68
2022/10/29 05:40:58;;;;;;;14.52;6.07;;;12.00;92.00;;;;;;5040482;28;20186;-67
2022/10/29 05:43:27;;;;;;;13.27;6.22;;;12.00;92.00;;;;;;5034722;28;20216;-67
2022/10/29 05:45:54;;;;;;;10.52;5.53;;;12.10;92.10;;;;;;5046645;28;20191;-67
2022/10/29 05:48:21;;;;;;;14.65;5.97;;;12.10;92.20;;;;;;5054408;28;20281;-67
2022/10/29 05:50:49;;;;;;;13.45;5.18;;;12.10;92.20;;;;;;5042563;28;20199;-67
2022/10/29 05:53:16;;;;;;;9.02;4.57;;;12.20;92.20;;;;;;5034150;28;20195;-67
2022/10/29 05:55:43;;;;;;;10.27;5.45;;;12.10;92.10;;;;;;5043204;28;20182;-67
2022/10/29 05:58:12;;;;;;;10.50;5.80;;;12.10;92.40;;;;;;5054060;28;20225;-67
2022/10/29 06:00:43;;;;;;;14.05;6.80;;;12.10;92.50;;;;;;5051659;28;20191;-68
2022/10/29 06:03:13;;;;;;;11.48;6.35;;;12.20;92.30;;;;;;5054106;28;20201;-67
2022/10/29 06:05:40;;;;;;;7.72;4.90;;;12.30;92.30;;;;;;5045804;28;20191;-67
2022/10/29 06:08:08;;;;;;;16.33;6.35;;;12.40;92.20;;;;;;5033957;28;20195;-67
2022/10/29 06:10:35;;;;;;;13.70;6.35;;;12.40;92.10;;;;;;5039954;28;20218;-67
2022/10/29 06:13:09;;;;;;;13.40;7.45;;;12.50;92.20;;;;;;5053781;28;20187;-67
2022/10/29 06:15:36;;;;;;;15.02;8.60;;;12.50;92.40;;;;;;5047395;28;20650;-67
2022/10/29 06:18:05;;;;;;;9.20;5.97;;;12.60;92.40;;;;;;5033792;28;20230;-67
2022/10/29 06:20:32;;;;;;;8.65;4.35;;;12.70;92.30;;;;;;5038786;28;20218;-67
2022/10/29 06:22:59;;;;;;;7.65;3.83;;;12.70;92.30;;;;;;5053528;28;20190;-69
2022/10/29 06:25:28;;;;;;;9.05;5.45;;;12.70;92.30;;;;;;5048702;28;20197;-67
2022/10/29 06:28:00;;;;;;;17.65;7.25;;;12.70;92.20;;;;;;5033786;28;20642;-67
2022/10/29 06:30:28;;;;;;;13.90;7.30;;;12.70;92.00;;;;;;5036888;28;20183;-68
2022/10/29 06:32:55;;;;;;;9.48;5.55;;;12.70;91.90;;;;;;5053782;28;20244;-67
2022/10/29 06:35:24;;;;;;;12.50;6.75;;;12.70;91.90;;;;;;5050517;28;20202;-67
2022/10/29 06:37:51;;;;;;;14.00;7.68;;;12.80;92.10;;;;;;5033536;28;20224;-67
2022/10/29 06:40:18;;;;;;;14.60;6.57;;;12.90;92.00;;;;;;5033515;28;20261;-67
2022/10/29 06:42:46;;;;;;;11.52;6.22;;;13.00;92.00;;;;;;5053538;28;20191;-67
2022/10/29 06:45:13;;;;;;;14.05;6.88;;;13.00;91.80;;;;;;5052417;28;20256;-69
2022/10/29 06:47:41;;;;;;;8.73;6.40;;;13.00;91.10;;;;;;5030710;28;20191;-69
2022/10/29 06:50:10;;;;;;;12.80;5.60;;;12.90;91.20;;;;;;5049473;28;20201;-72
2022/10/29 06:52:39;;;;;;;8.35;4.18;;;12.80;91.40;;;;;;5036019;28;20248;-67
2022/10/29 06:55:07;;;;;;;9.50;4.90;;;12.80;91.40;;;;;;5053249;28;20241;-67
2022/10/29 06:57:35;;;;;;;9.07;4.50;;;12.90;92.00;;;;;;5039622;28;20261;-67
2022/10/29 07:00:02;;;;;;;14.07;5.20;;;12.90;91.60;;;;;;5033352;28;20491;-67
2022/10/29 07:02:30;;;;;;;9.77;4.60;;;13.10;91.70;;;;;;5032953;28;20442;-68
2022/10/29 07:04:57;;;;;;;9.65;5.25;;;13.20;91.50;;;;;;5033037;28;20642;-68
2022/10/29 07:07:24;;;;;;;8.53;4.50;;;13.40;91.60;;;;;;5045629;28;20186;-67
2022/10/29 07:09:53;;;;;;;13.20;4.40;;;13.50;91.40;;;;;;5050371;28;20859;-67
2022/10/29 07:12:20;;;;;;;10.93;4.80;;;13.70;91.30;;;;;;5043399;28;20454;-67
2022/10/29 07:14:47;;;;;;;12.07;4.00;;;13.90;90.50;;;;;;5032802;28;20445;-70
2022/10/29 07:17:17;;;;;;;8.97;4.10;;;13.90;90.00;;;;;;5033445;28;20986;-67
2022/10/29 07:19:44;;;;;;;12.73;5.50;;;14.10;90.00;;;;;;5032712;28;20444;-67
2022/10/29 07:22:11;;;;;;;15.50;6.23;;;14.30;89.80;;;;;;5040309;28;20441;-68
2022/10/29 07:24:38;;;;;;;13.80;6.70;;;14.70;90.20;;;;;;5052866;28;20437;-67
2022/10/29 07:27:08;;;;;;;13.73;7.03;;;15.10;89.20;;;;;;5040700;28;20441;-68
2022/10/29 07:29:35;;;;;;;13.20;9.50;;;15.40;86.50;;;;;;5052658;28;20946;-68
2022/10/29 07:32:02;;;;;;;20.53;6.17;;;15.60;84.50;;;;;;5037085;28;20465;-68
2022/10/29 07:34:29;;;;;;;18.23;4.83;;;15.80;83.40;;;;;;5032711;28;20434;-67
2022/10/29 07:36:57;;;;;;;7.63;4.87;;;16.40;84.90;;;;;;5043574;28;20480;-68
2022/10/29 07:39:26;;;;;;;8.97;6.30;;;17.10;82.70;;;;;;5032807;28;20444;-68
2022/10/29 07:41:54;;;;;;;17.30;6.53;;;17.90;80.40;;;;;;5045299;28;20443;-68
2022/10/29 07:44:23;;;;;;;9.90;4.67;;;18.40;77.50;;;;;;5044451;28;20525;-68
2022/10/29 07:46:50;;;;;;;7.63;4.13;;;18.80;75.70;;;;;;5032728;28;20433;-68
2022/10/29 07:49:17;;;;;;;12.10;4.77;;;19.50;73.10;;;;;;5038130;28;20516;-68
2022/10/29 07:51:44;;;;;;;12.10;5.40;;;20.30;70.90;;;;;;5052275;28;20477;-68
2022/10/29 07:54:11;;;;;;;12.40;5.17;;;20.90;67.00;;;;;;5046677;28;20446;-70
2022/10/29 07:56:39;;;;;;;8.53;4.10;;;21.00;63.90;;;;;;5032239;28;20923;-68
2022/10/29 07:59:08;;;;;;;11.13;4.10;;;21.00;63.60;;;;;;5030324;28;20847;-68
2022/10/29 08:01:36;;;;;;;12.50;7.57;;;21.10;60.70;;;;;;5016325;28;20842;-68
2022/10/29 08:04:04;;;;;;;10.03;6.33;;;21.60;60.80;;;;;;5016397;28;20925;-68
2022/10/29 08:06:34;;;;;;;8.80;5.30;;;21.60;57.60;;;;;;5016686;28;20443;-68
2022/10/29 08:09:01;;;;;;;10.40;5.43;;;21.50;58.90;;;;;;5051736;28;20502;-69
2022/10/29 08:11:28;;;;;;;11.30;5.10;;;21.60;59.30;;;;;;5056486;28;20441;-68
2022/10/29 08:13:56;;;;;;;10.97;3.63;;;21.80;58.40;;;;;;5039593;28;20441;-68
2022/10/29 08:16:23;;;;;;;11.57;4.93;;;22.50;58.70;;;;;;5036226;28;20495;-68
2022/10/29 08:18:52;;;;;;;11.27;4.33;;;23.80;56.20;;;;;;5050800;28;20480;-67
2022/10/29 08:21:19;;;;;;;9.40;3.50;;;25.10;52.80;;;;;;5055935;28;20476;-68
2022/10/29 08:23:46;;;;;;;12.53;5.57;;;26.10;49.70;;;;;;5041704;28;20951;-68
2022/10/29 08:26:13;;;;;;;11.90;5.63;;;26.90;47.80;;;;;;5032992;28;20510;-66
2022/10/29 08:28:41;;;;;;;12.30;5.30;;;27.30;45.70;;;;;;5024111;28;20939;-69
2022/10/29 08:31:08;;;;;;;10.37;6.13;;;27.60;43.80;;;;;;5031737;28;20442;-68
2022/10/29 08:33:36;;;;;;;13.20;4.10;;;28.10;42.20;;;;;;5033235;28;20950;-68
2022/10/29 08:36:05;;;;;;;7.23;3.97;;;28.90;41.10;;;;;;5041733;28;20471;-68
2022/10/29 08:38:32;;;;;;;10.60;3.47;;;29.70;39.10;;;;;;5048854;28;21065;-70
2022/10/29 08:41:19;;;;;;;11.17;3.40;;;30.50;36.00;;;;;;5035325;28;20469;-70
2022/10/29 08:44:07;;;;;;;10.67;4.20;;;31.20;35.40;;;;;;5035905;28;20971;-69
2022/10/29 08:46:43;;;;;;;13.17;4.90;;;32.00;34.70;;;;;;5035920;28;20449;-69
2022/10/29 08:49:15;;;;;;;7.77;2.97;;;32.70;32.80;;;;;;5035701;28;20499;-74
2022/10/29 08:51:49;;;;;;;11.77;3.87;;;33.30;31.90;;;;;;5016141;28;20439;-67
2022/10/29 08:54:17;;;;;;;9.73;3.10;;;33.90;30.40;;;;;;5011873;28;20507;-69
2022/10/29 08:56:50;;;;;;;9.40;3.00;;;34.30;28.50;;;;;;5017319;28;20449;-68
2022/10/29 08:59:20;;;;;;;11.37;3.77;;;34.50;28.20;;;;;;5029739;28;20469;-67
2022/10/29 09:01:47;;;;;;;8.20;3.20;;;35.00;26.90;;;;;;5032339;28;20438;-67
2022/10/29 09:04:24;;;;;;;5.97;2.97;;;35.00;26.90;;;;;;5031357;28;20948;-68
2022/10/29 09:07:08;;;;;;;9.87;2.50;;;34.90;25.90;;;;;;5030623;28;20534;-68
2022/10/29 09:09:39;;;;;;;6.07;2.97;;;34.70;25.80;;;;;;5028870;28;20442;-68
2022/10/29 09:12:29;;;;;;;9.70;3.30;;;35.10;26.30;;;;;;5028990;28;20924;-67
2022/10/29 09:15:30;;;;;;;12.17;4.47;;;35.60;24.50;;;;;;5029878;28;20947;-68
2022/10/29 09:18:21;;;;;;;8.57;2.83;;;36.10;23.50;;;;;;5007106;28;20524;-68
2022/10/29 09:21:01;;;;;;;6.60;2.83;;;37.10;22.70;;;;;;5011607;28;20476;-67
2022/10/29 09:23:45;;;;;;;11.00;3.00;;;37.40;22.80;;;;;;4986800;28;20448;-68
2022/10/29 09:26:17;;;;;;;8.47;2.90;;;38.30;22.80;;;;;;4993073;28;20495;-68
2022/10/29 09:28:56;;;;;;;7.73;2.63;;;39.20;21.60;;;;;;4992067;28;20513;-68
2022/10/29 09:31:30;;;;;;;11.80;3.93;;;39.60;20.80;;;;;;4980901;28;20443;-68
2022/10/29 09:34:02;;;;;;;10.10;3.10;;;39.90;20.10;;;;;;4993316;28;20939;-68
2022/10/29 09:36:31;;;;;;;8.70;3.03;;;40.10;19.80;;;;;;4992381;28;20454;-68
2022/10/29 09:39:02;;;;;;;7.07;3.00;;;40.40;19.60;;;;;;4993289;28;20510;-70
2022/10/29 09:41:32;;;;;;;10.70;3.97;;;40.80;19.20;;;;;;4992998;28;20502;-68
2022/10/29 09:44:03;;;;;;;10.90;3.80;;;41.20;18.30;;;;;;4992501;28;20531;-68
2022/10/29 09:46:39;;;;;;;10.43;3.60;;;41.60;18.40;;;;;;4991481;28;20447;-68
2022/10/29 09:49:22;;;;;;;13.50;4.07;;;41.90;18.40;;;;;;4991951;28;20489;-69
2022/10/29 09:51:54;;;;;;;10.70;3.07;;;42.10;17.40;;;;;;4992327;28;20458;-68
2022/10/29 09:54:24;;;;;;;6.33;3.20;;;42.40;17.10;;;;;;4992992;28;20446;-68
2022/10/29 09:56:51;;;;;;;14.60;3.63;;;42.80;17.00;;;;;;4992329;28;20498;-68
2022/10/29 09:59:28;;;;;;;16.40;3.13;;;43.10;16.70;;;;;;4993016;28;20907;-68
2022/10/29 10:01:55;;;;;;;11.50;3.60;;;43.30;17.00;;;;;;4992766;28;20596;-68
2022/10/29 10:04:27;;;;;;;12.27;4.00;;;44.00;16.40;;;;;;4992814;28;20530;-67
2022/10/29 10:07:08;;;;;;;11.90;3.70;;;44.60;16.40;;;;;;4992359;28;20966;-69
2022/10/29 10:12:47;;;;;;;10.03;3.50;;;45.30;15.60;;;;;;5128539;27;20323;-67
2022/10/29 10:15:21;;;;;;;8.97;3.40;;;46.10;14.80;;;;;;5109485;28;20970;-66
2022/10/29 10:18:00;;;;;;;11.57;3.40;;;45.80;14.10;;;;;;5109898;28;20430;-68
2022/10/29 10:20:31;;;;;;;7.90;2.80;;;45.00;14.70;;;;;;5113132;28;20529;-67
2022/10/29 10:22:58;;;;;;;9.33;2.70;;;44.70;14.70;;;;;;5110118;28;20446;-67
2022/10/29 10:25:34;;;;;;;9.43;3.30;;;44.60;14.80;;;;;;5112411;28;20429;-68
2022/10/29 10:28:19;;;;;;;7.47;3.37;;;44.70;14.90;;;;;;5127720;28;20468;-69
2022/10/29 10:31:01;;;;;;;8.27;3.47;;;44.80;14.50;;;;;;5112469;28;20512;-67
2022/10/29 10:33:28;;;;;;;10.77;3.00;;;45.20;14.20;;;;;;5126415;28;20437;-67
2022/10/29 10:36:00;;;;;;;10.73;3.73;;;46.10;14.60;;;;;;5120680;28;20499;-69
2022/10/29 10:38:27;;;;;;;11.50;3.17;;;47.10;13.50;;;;;;5109361;28;20460;-68
2022/10/29 10:40:56;;;;;;;12.90;3.17;;;47.20;13.50;;;;;;5122472;28;20430;-69
2022/10/29 10:43:25;;;;;;;12.57;3.00;;;47.50;13.90;;;;;;5125145;28;20434;-67
2022/10/29 10:45:56;;;;;;;7.27;3.10;;;47.90;14.20;;;;;;5126921;28;20433;-67
2022/10/29 10:48:27;;;;;;;13.77;3.37;;;48.20;14.40;;;;;;5123023;28;20438;-67
2022/10/29 10:51:19;;;;;;;14.30;3.47;;;48.00;13.10;;;;;;5107972;28;20492;-70
2022/10/29 10:53:47;;;;;;;8.10;3.13;;;48.00;12.60;;;;;;5108525;28;20511;-67
2022/10/29 10:56:18;;;;;;;11.90;3.40;;;47.60;12.70;;;;;;5108836;28;20547;-68
2022/10/29 10:58:53;;;;;;;10.23;2.90;;;47.40;13.30;;;;;;5114925;28;20465;-69
2022/10/29 11:01:26;;;;;;;9.47;3.27;;;47.50;13.20;;;;;;5108157;28;20500;-67
2022/10/29 11:04:01;;;;;;;6.63;3.10;;;47.80;13.60;;;;;;5106622;28;20491;-67
2022/10/29 11:06:32;;;;;;;8.80;3.13;;;48.10;12.90;;;;;;5109577;28;20469;-67
2022/10/29 11:09:13;;;;;;;6.60;2.90;;;48.20;12.30;;;;;;5114993;28;20433;-67
2022/10/29 11:11:44;;;;;;;10.83;3.77;;;47.50;12.20;;;;;;5111008;28;20828;-68
2022/10/29 11:14:18;;;;;;;9.00;3.23;;;46.80;12.90;;;;;;5109564;28;20442;-67
2022/10/29 11:16:49;;;;;;;5.20;2.57;;;46.00;13.00;;;;;;5116183;28;20474;-67
2022/10/29 11:19:23;;;;;;;14.17;3.97;;;45.60;14.00;;;;;;5112763;28;20442;-67
2022/10/29 11:22:09;;;;;;;6.50;3.33;;;45.50;13.70;;;;;;5106220;28;20919;-68
2022/10/29 11:24:45;;;;;;;11.40;3.10;;;45.30;14.70;;;;;;5098595;28;20446;-66
2022/10/29 11:27:25;;;;;;;9.27;3.10;;;45.20;14.20;;;;;;5102877;28;20437;-67
2022/10/29 11:30:02;;;;;;;8.70;3.47;;;45.50;13.10;;;;;;5100883;28;20439;-67
2022/10/29 11:32:38;;;;;;;11.37;3.23;;;45.50;12.90;;;;;;5103659;28;20838;-68
2022/10/29 11:35:11;;;;;;;7.93;2.70;;;44.60;12.90;;;;;;5102491;28;20453;-67
2022/10/29 11:37:48;;;;;;;8.17;2.90;;;44.30;13.80;;;;;;5095563;28;20932;-67
2022/10/29 11:40:19;;;;;;;13.30;3.50;;;43.90;14.40;;;;;;5105530;28;20446;-67
2022/10/29 11:42:46;;;;;;;8.27;3.40;;;43.90;14.00;;;;;;5105796;28;20499;-66
2022/10/29 11:45:17;;;;;;;10.07;3.27;;;44.50;13.10;;;;;;5101857;28;20443;-69
2022/10/29 11:48:17;;;;;;;6.90;3.03;;;45.00;14.10;;;;;;5100025;28;20450;-68
2022/10/29 11:50:53;;;;;;;12.60;3.23;;;46.00;13.30;;;;;;5104570;28;20941;-68
2022/10/29 11:53:32;;;;;;;9.83;3.13;;;46.60;12.60;;;;;;5099927;28;20496;-67
2022/10/29 11:56:11;;;;;;;9.50;2.73;;;46.70;12.30;;;;;;5102945;28;20819;-67
2022/10/29 11:58:46;;;;;;;7.90;3.00;;;46.70;12.40;;;;;;5103020;28;20483;-68
2022/10/29 12:01:25;;;;;;;9.50;3.23;;;46.70;12.70;;;;;;5099315;28;20527;-68
2022/10/29 12:04:15;;;;;;;10.80;3.57;;;47.10;13.20;;;;;;5106024;28;21018;-68
2022/10/29 12:06:53;;;;;;;10.47;3.83;;;47.40;12.30;;;;;;5101197;28;20463;-68
2022/10/29 12:09:58;;;;;;;6.57;2.93;;;46.90;11.70;;;;;;5101853;28;20443;-68
2022/10/29 12:12:31;;;;;;;9.30;3.47;;;46.70;12.20;;;;;;5099165;28;20485;-68
2022/10/29 12:15:07;;;;;;;6.57;3.03;;;46.40;11.60;;;;;;5104183;28;20439;-68
2022/10/29 12:17:46;;;;;;;13.27;3.87;;;46.40;12.80;;;;;;5102598;28;21289;-68
2022/10/29 12:20:19;;;;;;;8.17;4.33;;;46.80;12.40;;;;;;5098570;28;20504;-67
2022/10/29 12:22:52;;;;;;;7.63;3.07;;;47.00;12.90;;;;;;5101407;28;20447;-68
2022/10/29 12:25:29;;;;;;;9.47;2.90;;;47.00;11.80;;;;;;5101286;28;20438;-67
2022/10/29 12:28:06;;;;;;;8.40;3.23;;;47.50;11.90;;;;;;5100493;28;20552;-68
2022/10/29 12:30:39;;;;;;;14.47;3.40;;;47.90;11.70;;;;;;5101280;28;20448;-68
2022/10/29 12:33:17;;;;;;;7.60;3.23;;;47.80;11.70;;;;;;5105007;28;20486;-71
2022/10/29 12:35:51;;;;;;;10.47;3.07;;;47.50;12.00;;;;;;5096797;28;20528;-68
2022/10/29 12:38:33;;;;;;;8.70;2.83;;;47.00;12.40;;;;;;5100439;28;20587;-68
2022/10/29 12:41:05;;;;;;;9.33;3.40;;;46.90;12.90;;;;;;5098032;28;20434;-69
2022/10/29 12:43:35;;;;;;;5.80;3.00;;;47.10;12.90;;;;;;5100320;28;20439;-69
2022/10/29 12:46:15;;;;;;;10.00;3.33;;;47.10;13.10;;;;;;5102657;28;20464;-69
2022/10/29 12:49:01;;;;;;;15.37;3.37;;;46.80;13.60;;;;;;5101295;28;21005;-68
2022/10/29 12:51:39;;;;;;;12.00;3.20;;;46.70;13.90;;;;;;5101196;28;20466;-68
2022/10/29 12:54:36;;;;;;;16.03;3.60;;;46.70;14.00;;;;;;5101433;28;20467;-69
2022/10/29 12:57:06;;;;;;;13.90;3.93;;;46.50;14.30;;;;;;5097874;28;20541;-71
2022/10/29 12:59:36;;;;;;;13.23;3.63;;;46.20;14.20;;;;;;5099691;28;21005;-68
2022/10/29 13:02:44;;;;;;;7.23;3.40;;;45.90;14.60;;;;;;5097732;28;20492;-68
2022/10/29 13:08:35;;;;;;;9.00;3.43;;;45.30;14.30;;;;;;5135709;27;20620;-66